createdAt,value
2017-09-05T00:01:32.238Z,18.40
2017-09-05T00:04:01.487Z,18.40
2017-09-05T00:06:30.729Z,18.40
2017-09-05T00:08:59.983Z,18.40
2017-09-05T00:11:39.327Z,18.40
2017-09-05T00:14:08.574Z,18.30
2017-09-05T00:16:41.707Z,18.20
2017-09-05T00:19:14.294Z,18.20
2017-09-05T00:24:52.284Z,18.20
2017-09-05T00:27:21.564Z,18.20
2017-09-05T00:29:50.803Z,18.20
2017-09-05T00:32:20.055Z,18.20
2017-09-05T00:34:49.471Z,18.20
2017-09-05T00:37:18.711Z,18.10
2017-09-05T00:39:47.944Z,18.10
2017-09-05T00:42:17.223Z,18.10
2017-09-05T00:44:46.467Z,18.00
2017-09-05T00:47:15.712Z,18.00
2017-09-05T00:49:44.990Z,18.00
2017-09-05T00:52:14.232Z,17.90
2017-09-05T00:54:43.477Z,17.90
2017-09-05T00:57:12.766Z,17.80
2017-09-05T00:59:42.109Z,17.70
2017-09-05T01:02:11.343Z,17.60
2017-09-05T01:04:40.729Z,17.50
2017-09-05T01:07:09.962Z,17.50
2017-09-05T01:09:39.207Z,17.50
2017-09-05T01:12:08.478Z,17.40
2017-09-05T01:14:37.723Z,17.30
2017-09-05T01:17:07.003Z,17.30
2017-09-05T01:19:36.261Z,17.40
2017-09-05T01:22:05.595Z,17.40
2017-09-05T01:24:34.853Z,17.30
2017-09-05T01:27:04.101Z,17.30
2017-09-05T01:29:33.347Z,17.30
2017-09-05T01:32:02.620Z,17.20
2017-09-05T01:34:31.859Z,17.10
2017-09-05T01:37:01.175Z,17.10
2017-09-05T01:39:30.429Z,17.20
2017-09-05T01:41:59.688Z,17.20
2017-09-05T01:44:29.771Z,17.30
2017-09-05T01:46:59.019Z,17.20
2017-09-05T01:49:28.303Z,17.30
2017-09-05T01:51:57.617Z,17.30
2017-09-05T01:54:26.846Z,17.30
2017-09-05T01:56:56.097Z,17.30
2017-09-05T01:59:25.513Z,17.30
2017-09-05T02:01:54.763Z,17.40
2017-09-05T02:04:24.007Z,17.40
2017-09-05T02:06:53.276Z,17.40
2017-09-05T02:09:22.527Z,17.30
2017-09-05T02:11:51.995Z,17.30
2017-09-05T02:14:21.259Z,17.30
2017-09-05T02:16:50.516Z,17.30
2017-09-05T02:19:19.794Z,17.30
2017-09-05T02:21:49.085Z,17.20
2017-09-05T02:24:18.377Z,17.20
2017-09-05T02:26:47.635Z,17.20
2017-09-05T02:29:16.914Z,17.20
2017-09-05T02:31:46.180Z,17.20
2017-09-05T02:34:15.473Z,17.20
2017-09-05T02:36:44.743Z,17.20
2017-09-05T02:39:13.988Z,17.20
2017-09-05T02:41:43.469Z,17.20
2017-09-05T02:44:12.711Z,17.20
2017-09-05T02:46:42.068Z,17.20
2017-09-05T02:49:11.493Z,17.20
2017-09-05T02:51:40.747Z,17.20
2017-09-05T02:54:10.035Z,17.20
2017-09-05T02:56:39.447Z,17.10
2017-09-05T02:59:08.715Z,17.10
2017-09-05T03:01:37.974Z,17.10
2017-09-05T03:04:07.276Z,17.10
2017-09-05T03:06:36.556Z,17.10
2017-09-05T03:09:05.815Z,17.20
2017-09-05T03:11:35.143Z,17.20
2017-09-05T03:14:04.406Z,17.20
2017-09-05T03:16:33.704Z,17.20
2017-09-05T03:19:03.142Z,17.20
2017-09-05T03:21:32.407Z,17.20
2017-09-05T03:24:01.679Z,17.20
2017-09-05T03:26:30.967Z,17.20
2017-09-05T03:29:00.244Z,17.20
2017-09-05T03:31:29.553Z,17.20
2017-09-05T03:33:58.829Z,17.10
2017-09-05T03:36:28.088Z,17.10
2017-09-05T03:38:57.411Z,17.00
2017-09-05T03:41:26.741Z,17.00
2017-09-05T03:43:55.992Z,17.00
2017-09-05T03:46:25.268Z,17.00
2017-09-05T03:48:54.574Z,17.00
2017-09-05T03:51:23.846Z,17.00
2017-09-05T03:53:53.112Z,17.00
2017-09-05T03:56:22.420Z,17.00
2017-09-05T03:58:51.684Z,17.00
2017-09-05T04:01:20.960Z,17.00
2017-09-05T04:03:50.399Z,16.90
2017-09-05T04:06:19.665Z,17.00
2017-09-05T04:08:48.941Z,17.00
2017-09-05T04:11:18.258Z,17.00
2017-09-05T04:13:47.515Z,17.00
2017-09-05T04:16:16.779Z,16.90
2017-09-05T04:18:46.055Z,16.90
2017-09-05T04:21:15.318Z,17.00
2017-09-05T04:23:44.751Z,17.00
2017-09-05T04:26:14.049Z,17.00
2017-09-05T04:28:43.312Z,17.00
2017-09-05T04:31:12.785Z,17.00
2017-09-05T04:33:42.040Z,17.00
2017-09-05T04:36:11.286Z,17.00
2017-09-05T04:38:40.630Z,17.00
2017-09-05T04:41:09.997Z,17.00
2017-09-05T04:43:39.260Z,17.00
2017-09-05T04:46:08.663Z,17.00
2017-09-05T04:48:37.924Z,16.90
2017-09-05T04:51:12.806Z,16.90
2017-09-05T04:53:42.060Z,16.90
2017-09-05T04:56:11.338Z,16.90
2017-09-05T04:58:40.630Z,16.90
2017-09-05T05:01:11.911Z,16.90
2017-09-05T05:03:41.365Z,16.90
2017-09-05T05:06:10.671Z,16.90
2017-09-05T05:08:39.920Z,16.90
2017-09-05T05:11:09.485Z,16.90
2017-09-05T05:13:38.961Z,17.00
2017-09-05T05:16:08.239Z,17.00
2017-09-05T05:18:37.572Z,16.90
2017-09-05T05:21:06.869Z,17.00
2017-09-05T05:23:36.143Z,17.00
2017-09-05T05:26:05.395Z,17.00
2017-09-05T05:28:34.693Z,17.10
2017-09-05T05:31:04.009Z,17.10
2017-09-05T05:33:33.315Z,17.10
2017-09-05T05:36:02.623Z,17.10
2017-09-05T05:38:31.902Z,17.20
2017-09-05T05:41:01.186Z,17.20
2017-09-05T05:43:30.545Z,17.20
2017-09-05T05:45:59.911Z,17.30
2017-09-05T05:48:29.332Z,17.10
2017-09-05T05:50:58.605Z,17.10
2017-09-05T05:53:27.869Z,17.10
2017-09-05T05:55:57.283Z,17.20
2017-09-05T05:58:28.450Z,17.20
2017-09-05T06:00:57.732Z,17.20
2017-09-05T06:03:26.993Z,17.20
2017-09-05T06:05:56.260Z,17.20
2017-09-05T06:08:25.561Z,17.20
2017-09-05T06:10:54.903Z,17.20
2017-09-05T06:13:24.155Z,17.20
2017-09-05T06:15:53.563Z,17.20
2017-09-05T06:18:23.107Z,17.30
2017-09-05T06:20:52.354Z,17.20
2017-09-05T06:23:21.623Z,17.30
2017-09-05T06:25:50.912Z,17.30
2017-09-05T06:28:20.175Z,17.30
2017-09-05T06:30:49.483Z,17.40
2017-09-05T06:33:18.739Z,17.40
2017-09-05T06:35:48.010Z,17.40
2017-09-05T06:38:17.302Z,17.50
2017-09-05T06:40:46.548Z,17.50
2017-09-05T06:43:15.800Z,17.50
2017-09-05T06:45:45.062Z,17.60
2017-09-05T06:48:20.449Z,17.60
2017-09-05T06:50:49.880Z,17.60
2017-09-05T06:53:19.253Z,17.60
2017-09-05T06:55:48.639Z,17.70
2017-09-05T06:58:18.190Z,17.80
2017-09-05T07:00:47.620Z,17.80
2017-09-05T07:03:16.959Z,17.80
2017-09-05T07:05:46.540Z,17.80
2017-09-05T07:08:15.968Z,17.90
2017-09-05T07:10:45.249Z,18.00
2017-09-05T07:13:14.511Z,18.10
2017-09-05T07:15:43.755Z,18.10
2017-09-05T07:18:13.207Z,18.10
2017-09-05T07:20:42.463Z,18.20
2017-09-05T07:23:11.780Z,18.30
2017-09-05T07:25:51.855Z,18.40
2017-09-05T07:28:21.147Z,18.40
2017-09-05T07:30:50.607Z,18.50
2017-09-05T07:33:19.863Z,18.50
2017-09-05T07:35:49.118Z,18.50
2017-09-05T07:38:18.408Z,18.60
2017-09-05T07:40:47.687Z,18.60
2017-09-05T07:43:16.939Z,18.70
2017-09-05T07:45:46.230Z,18.70
2017-09-05T07:48:15.467Z,18.80
2017-09-05T07:50:44.747Z,19.00
2017-09-05T07:53:14.000Z,19.00
2017-09-05T07:55:43.239Z,19.10
2017-09-05T07:58:12.548Z,19.20
2017-09-05T08:00:41.804Z,19.30
2017-09-05T08:03:11.044Z,19.40
2017-09-05T08:05:40.484Z,19.60
2017-09-05T08:08:09.727Z,19.60
2017-09-05T08:10:38.967Z,19.70
2017-09-05T08:13:08.255Z,19.80
2017-09-05T08:15:37.519Z,19.80
2017-09-05T08:18:06.759Z,19.90
2017-09-05T08:20:36.031Z,19.90
2017-09-05T08:23:05.275Z,20.00
2017-09-05T08:25:34.520Z,20.10
2017-09-05T08:28:03.791Z,20.10
2017-09-05T08:30:33.030Z,20.10
2017-09-05T08:33:02.295Z,20.10
2017-09-05T08:35:31.535Z,20.20
2017-09-05T08:38:00.781Z,20.30
2017-09-05T08:40:30.044Z,20.30
2017-09-05T08:42:59.309Z,20.40
2017-09-05T08:45:42.959Z,20.50
2017-09-05T08:48:12.207Z,20.50
2017-09-05T08:50:41.454Z,20.60
2017-09-05T08:53:10.728Z,20.70
2017-09-05T08:55:39.988Z,20.80
2017-09-05T08:58:09.232Z,20.90
2017-09-05T09:00:38.679Z,20.90
2017-09-05T09:03:07.919Z,21.00
2017-09-05T09:05:37.171Z,21.10
2017-09-05T09:08:06.472Z,21.20
2017-09-05T09:10:35.736Z,21.20
2017-09-05T09:13:04.987Z,21.30
2017-09-05T09:15:34.264Z,21.30
2017-09-05T09:18:06.739Z,21.40
2017-09-05T09:20:35.975Z,21.50
2017-09-05T09:23:05.212Z,21.50
2017-09-05T09:25:34.487Z,21.50
2017-09-05T09:28:03.743Z,21.50
2017-09-05T09:30:33.035Z,21.60
2017-09-05T09:33:02.289Z,21.70
2017-09-05T09:35:31.533Z,21.70
2017-09-05T09:38:00.794Z,21.70
2017-09-05T09:40:30.055Z,21.70
2017-09-05T09:42:59.487Z,21.70
2017-09-05T09:45:28.745Z,21.70
2017-09-05T09:47:58.012Z,21.80
2017-09-05T09:50:28.041Z,21.70
2017-09-05T09:52:57.294Z,21.70
2017-09-05T09:55:26.719Z,21.70
2017-09-05T09:57:55.967Z,21.70
2017-09-05T10:00:25.215Z,21.80
2017-09-05T10:02:54.471Z,21.80
2017-09-05T10:05:23.708Z,21.80
2017-09-05T10:07:52.976Z,21.90
2017-09-05T10:10:22.244Z,21.90
2017-09-05T10:12:51.510Z,22.00
2017-09-05T10:15:20.752Z,22.10
2017-09-05T10:17:50.188Z,22.30
2017-09-05T10:20:19.431Z,22.40
2017-09-05T10:22:48.672Z,22.40
2017-09-05T10:25:17.947Z,22.40
2017-09-05T10:27:47.204Z,22.50
2017-09-05T10:30:16.450Z,22.60
2017-09-05T10:32:45.722Z,22.70
2017-09-05T10:35:14.993Z,22.80
2017-09-05T10:37:44.239Z,23.00
2017-09-05T10:40:13.480Z,23.10
2017-09-05T10:42:42.744Z,23.20
2017-09-05T10:45:12.032Z,23.30
2017-09-05T10:47:41.270Z,23.30
2017-09-05T10:50:10.564Z,23.40
2017-09-05T10:52:39.848Z,23.40
2017-09-05T10:55:09.095Z,23.50
2017-09-05T10:57:38.348Z,23.50
2017-09-05T11:00:07.620Z,23.60
2017-09-05T11:02:50.127Z,23.60
2017-09-05T11:05:19.373Z,23.70
2017-09-05T11:07:48.624Z,23.80
2017-09-05T11:10:17.901Z,23.70
2017-09-05T11:12:47.346Z,23.70
2017-09-05T11:15:16.587Z,23.80
2017-09-05T11:17:45.834Z,23.80
2017-09-05T11:20:15.100Z,23.80
2017-09-05T11:22:44.368Z,23.90
2017-09-05T11:25:13.619Z,24.00
2017-09-05T11:27:42.896Z,24.00
2017-09-05T11:30:12.159Z,24.20
2017-09-05T11:32:41.464Z,24.30
2017-09-05T11:38:17.038Z,24.50
2017-09-05T11:40:46.292Z,24.50
2017-09-05T11:43:15.539Z,24.60
2017-09-05T11:45:44.951Z,24.70
2017-09-05T11:48:14.207Z,24.80
2017-09-05T11:50:43.455Z,24.80
2017-09-05T11:53:12.721Z,24.90
2017-09-05T11:55:41.966Z,25.00
2017-09-05T11:58:11.240Z,25.10
2017-09-05T12:00:40.488Z,25.10
2017-09-05T12:03:09.730Z,25.10
2017-09-05T12:05:38.995Z,25.20
2017-09-05T12:08:08.235Z,25.10
2017-09-05T12:10:37.519Z,25.10
2017-09-05T12:13:06.927Z,25.00
2017-09-05T12:15:36.167Z,25.10
2017-09-05T12:18:05.427Z,25.10
2017-09-05T12:20:34.674Z,25.20
2017-09-05T12:23:03.919Z,25.30
2017-09-05T12:25:33.217Z,25.40
2017-09-05T12:28:02.464Z,25.40
2017-09-05T12:30:31.707Z,25.40
2017-09-05T12:33:01.153Z,25.40
2017-09-05T12:35:30.408Z,25.30
2017-09-05T12:37:59.643Z,25.30
2017-09-05T12:40:29.003Z,25.30
2017-09-05T12:42:58.251Z,25.30
2017-09-05T12:45:33.279Z,25.10
2017-09-05T12:48:15.202Z,25.10
2017-09-05T12:51:05.842Z,25.00
2017-09-05T12:56:57.976Z,24.80
2017-09-05T12:59:34.869Z,24.80
2017-09-05T13:02:15.334Z,24.70
2017-09-05T13:05:00.301Z,24.70
2017-09-05T13:10:30.654Z,24.70
2017-09-05T13:13:07.521Z,24.50
2017-09-05T13:15:41.308Z,24.40
2017-09-05T13:18:14.547Z,24.50
2017-09-05T13:20:49.724Z,24.50
2017-09-05T13:23:32.724Z,24.60
2017-09-05T13:26:15.498Z,24.60
2017-09-05T13:28:51.743Z,24.60
2017-09-05T13:31:26.802Z,24.60
2017-09-05T13:34:06.885Z,24.60
2017-09-05T13:36:40.600Z,24.80
2017-09-05T13:39:15.294Z,24.90
2017-09-05T13:41:48.013Z,25.00
2017-09-05T13:44:27.188Z,25.10
2017-09-05T13:47:07.475Z,25.10
2017-09-05T13:49:48.806Z,25.10
2017-09-05T13:52:24.151Z,25.20
2017-09-05T13:55:04.319Z,25.30
2017-09-05T13:57:38.790Z,25.20
2017-09-05T14:00:17.116Z,25.30
2017-09-05T14:02:56.420Z,25.30
2017-09-05T14:05:30.727Z,25.40
2017-09-05T14:08:11.170Z,25.40
2017-09-05T14:10:49.012Z,25.30
2017-09-05T14:13:19.346Z,25.20
2017-09-05T14:15:48.605Z,25.20
2017-09-05T14:18:17.852Z,25.20
2017-09-05T14:20:47.094Z,25.30
2017-09-05T14:23:17.348Z,25.40
2017-09-05T14:25:46.644Z,25.40
2017-09-05T14:28:15.912Z,25.40
2017-09-05T14:30:45.179Z,25.40
2017-09-05T14:33:15.362Z,25.30
2017-09-05T14:35:44.603Z,25.30
2017-09-05T14:38:13.846Z,25.40
2017-09-05T14:40:43.314Z,25.50
2017-09-05T14:43:12.587Z,25.50
2017-09-05T14:45:41.833Z,25.50
2017-09-05T14:48:11.103Z,25.60
2017-09-05T14:50:40.361Z,25.50
2017-09-05T14:53:09.636Z,25.50
2017-09-05T14:55:38.956Z,25.40
2017-09-05T14:58:08.207Z,25.50
2017-09-05T15:00:37.443Z,25.50
2017-09-05T15:03:06.719Z,25.40
2017-09-05T15:05:35.968Z,25.50
2017-09-05T15:08:05.216Z,25.40
2017-09-05T15:10:34.583Z,25.40
2017-09-05T15:13:03.891Z,25.40
2017-09-05T15:15:33.147Z,25.50
2017-09-05T15:18:02.571Z,25.50
2017-09-05T15:20:31.816Z,25.50
2017-09-05T15:23:01.059Z,25.50
2017-09-05T15:25:30.315Z,25.50
2017-09-05T15:27:59.563Z,25.50
2017-09-05T15:30:28.806Z,25.50
2017-09-05T15:32:58.253Z,25.40
2017-09-05T15:35:27.496Z,25.50
2017-09-05T15:37:56.740Z,25.40
2017-09-05T15:40:26.191Z,25.40
2017-09-05T15:42:55.419Z,25.50
2017-09-05T15:45:24.659Z,25.40
2017-09-05T15:47:53.957Z,25.30
2017-09-05T15:50:23.251Z,25.30
2017-09-05T15:52:52.487Z,25.30
2017-09-05T15:55:21.752Z,25.20
2017-09-05T15:57:51.232Z,25.00
2017-09-05T16:00:20.516Z,25.00
2017-09-05T16:02:49.759Z,25.00
2017-09-05T16:05:19.014Z,25.10
2017-09-05T16:07:48.263Z,25.10
2017-09-05T16:10:17.529Z,25.10
2017-09-05T16:12:46.877Z,25.00
2017-09-05T16:15:16.118Z,25.00
2017-09-05T16:17:45.423Z,25.00
2017-09-05T16:20:14.734Z,25.00
2017-09-05T16:22:43.998Z,24.90
2017-09-05T16:25:13.275Z,24.80
2017-09-05T16:27:42.519Z,24.80
2017-09-05T16:30:11.776Z,24.80
2017-09-05T16:32:41.033Z,24.80
2017-09-05T16:35:10.318Z,24.90
2017-09-05T16:37:39.556Z,24.80
2017-09-05T16:40:08.809Z,24.90
2017-09-05T16:42:38.261Z,24.80
2017-09-05T16:45:07.527Z,24.80
2017-09-05T16:47:36.768Z,24.80
2017-09-05T16:50:06.052Z,24.80
2017-09-05T16:52:35.314Z,24.80
2017-09-05T16:55:04.570Z,24.80
2017-09-05T16:57:33.822Z,24.80
2017-09-05T17:00:03.827Z,24.70
2017-09-05T17:02:33.068Z,24.70
2017-09-05T17:05:02.453Z,24.70
2017-09-05T17:07:31.704Z,24.60
2017-09-05T17:10:00.958Z,24.60
2017-09-05T17:12:30.227Z,24.60
2017-09-05T17:14:59.528Z,24.60
2017-09-05T17:17:28.885Z,24.60
2017-09-05T17:19:58.302Z,24.60
2017-09-05T17:22:27.563Z,24.60
2017-09-05T17:24:56.811Z,24.60
2017-09-05T17:27:26.199Z,24.60
2017-09-05T17:29:55.444Z,24.60
2017-09-05T17:32:24.685Z,24.50
2017-09-05T17:34:54.065Z,24.60
2017-09-05T17:37:23.316Z,24.60
2017-09-05T17:39:52.559Z,24.50
2017-09-05T17:42:21.847Z,24.50
2017-09-05T17:44:51.099Z,24.40
2017-09-05T17:47:20.331Z,24.40
2017-09-05T17:49:49.780Z,24.30
2017-09-05T17:52:19.031Z,24.30
2017-09-05T17:54:48.287Z,24.30
2017-09-05T17:57:17.580Z,24.20
2017-09-05T17:59:46.823Z,24.10
2017-09-05T18:02:16.078Z,24.00
2017-09-05T18:04:45.371Z,24.00
2017-09-05T18:07:14.622Z,24.00
2017-09-05T18:09:43.870Z,23.90
2017-09-05T18:12:13.142Z,23.90
2017-09-05T18:14:42.383Z,23.80
2017-09-05T18:17:11.868Z,23.80
2017-09-05T18:19:41.111Z,23.80
2017-09-05T18:22:10.357Z,23.70
2017-09-05T18:24:39.797Z,23.70
2017-09-05T18:27:09.044Z,23.70
2017-09-05T18:29:38.288Z,23.60
2017-09-05T18:32:07.563Z,23.60
2017-09-05T18:34:36.813Z,23.50
2017-09-05T18:37:06.091Z,23.50
2017-09-05T18:39:35.334Z,23.40
2017-09-05T18:42:04.618Z,23.30
2017-09-05T18:44:34.044Z,23.30
2017-09-05T18:47:03.295Z,23.30
2017-09-05T18:49:32.547Z,23.30
2017-09-05T18:52:01.832Z,23.30
2017-09-05T18:54:31.078Z,23.20
2017-09-05T18:57:04.091Z,23.20
2017-09-05T18:59:33.344Z,23.10
2017-09-05T19:02:02.611Z,23.10
2017-09-05T19:04:31.895Z,23.10
2017-09-05T19:07:01.175Z,23.10
2017-09-05T19:09:30.419Z,23.10
2017-09-05T19:11:59.667Z,22.90
2017-09-05T19:14:28.991Z,22.80
2017-09-05T19:16:58.238Z,22.90
2017-09-05T19:19:27.483Z,22.80
2017-09-05T19:21:56.755Z,22.80
2017-09-05T19:24:26.013Z,22.80
2017-09-05T19:26:55.250Z,22.80
2017-09-05T19:29:25.374Z,22.80
2017-09-05T19:31:54.619Z,22.70
2017-09-05T19:34:23.874Z,22.50
2017-09-05T19:36:53.137Z,22.60
2017-09-05T19:39:22.543Z,22.60
2017-09-05T19:41:51.971Z,22.60
2017-09-05T19:44:21.207Z,22.60
2017-09-05T19:46:50.463Z,22.60
2017-09-05T19:49:19.731Z,22.60
2017-09-05T19:51:48.979Z,22.60
2017-09-05T19:54:18.227Z,22.40
2017-09-05T19:56:47.667Z,22.50
2017-09-05T19:59:16.912Z,22.50
2017-09-05T20:01:46.168Z,22.50
2017-09-05T20:04:15.579Z,22.50
2017-09-05T20:06:44.839Z,22.50
2017-09-05T20:09:14.090Z,22.40
2017-09-05T20:11:43.366Z,22.40
2017-09-05T20:14:12.608Z,22.40
2017-09-05T20:16:41.860Z,22.40
2017-09-05T20:19:11.151Z,22.30
2017-09-05T20:21:40.397Z,22.40
2017-09-05T20:24:09.643Z,22.30
2017-09-05T20:26:38.932Z,22.30
2017-09-05T20:29:08.170Z,22.30
2017-09-05T20:31:37.437Z,22.30
2017-09-05T20:34:06.699Z,22.30
2017-09-05T20:36:35.958Z,22.30
2017-09-05T20:39:05.224Z,22.30
2017-09-05T20:41:34.467Z,22.30
2017-09-05T20:44:03.716Z,22.30
2017-09-05T20:46:33.132Z,22.40
2017-09-05T20:49:02.376Z,22.40
2017-09-05T20:51:31.620Z,22.20
2017-09-05T20:54:00.887Z,22.20
2017-09-05T20:56:30.127Z,22.20
2017-09-05T20:58:59.369Z,22.20
2017-09-05T21:01:28.641Z,22.10
2017-09-05T21:03:57.892Z,22.10
2017-09-05T21:06:27.132Z,22.20
2017-09-05T21:08:56.404Z,22.20
2017-09-05T21:11:25.644Z,22.10
2017-09-05T21:13:54.893Z,22.10
2017-09-05T21:16:24.152Z,22.10
2017-09-05T21:18:53.763Z,22.10
2017-09-05T21:21:23.175Z,22.10
2017-09-05T21:23:52.421Z,22.10
2017-09-05T21:26:21.663Z,22.00
2017-09-05T21:28:50.951Z,22.00
2017-09-05T21:31:20.187Z,22.00
2017-09-05T21:33:49.432Z,22.00
2017-09-05T21:36:18.681Z,22.00
2017-09-05T21:38:47.927Z,22.00
2017-09-05T21:41:17.471Z,22.00
2017-09-05T21:43:46.740Z,22.10
2017-09-05T21:46:15.957Z,22.10
2017-09-05T21:48:45.395Z,22.10
2017-09-05T21:51:14.626Z,22.10
2017-09-05T21:53:43.892Z,22.10
2017-09-05T21:56:13.306Z,22.10
2017-09-05T21:58:42.552Z,22.10
2017-09-05T22:01:11.791Z,22.00
2017-09-05T22:03:41.043Z,22.00
2017-09-05T22:06:10.288Z,22.00
2017-09-05T22:08:39.540Z,21.90
2017-09-05T22:11:09.755Z,21.90
2017-09-05T22:13:38.994Z,21.90
2017-09-05T22:16:08.239Z,21.90
2017-09-05T22:18:42.952Z,21.80
2017-09-05T22:21:17.592Z,21.80
2017-09-05T22:23:46.846Z,21.80
2017-09-05T22:26:21.603Z,21.70
2017-09-05T22:28:56.445Z,21.80
2017-09-05T22:31:25.699Z,21.70
2017-09-05T22:33:54.942Z,21.70
2017-09-05T22:36:24.211Z,21.70
2017-09-05T22:38:53.452Z,21.70
2017-09-05T22:41:22.804Z,21.70
2017-09-05T22:43:52.151Z,21.60
2017-09-05T22:46:21.391Z,21.60
2017-09-05T22:48:50.636Z,21.60
2017-09-05T22:51:20.049Z,21.60
2017-09-05T22:53:49.295Z,21.60
2017-09-05T22:56:18.544Z,21.60
2017-09-05T22:58:47.816Z,21.60
2017-09-05T23:01:17.054Z,21.60
2017-09-05T23:03:46.294Z,21.60
2017-09-05T23:06:15.567Z,21.60
2017-09-05T23:08:44.813Z,21.60
2017-09-05T23:11:14.055Z,21.50
2017-09-05T23:13:43.472Z,21.50
2017-09-05T23:16:12.718Z,21.50
2017-09-05T23:18:41.958Z,21.60
2017-09-05T23:21:11.223Z,21.60
2017-09-05T23:23:40.463Z,21.50
2017-09-05T23:26:09.707Z,21.40
2017-09-05T23:28:39.132Z,21.40
2017-09-05T23:31:08.381Z,21.50
2017-09-05T23:33:37.624Z,21.40
2017-09-05T23:36:06.908Z,21.40
2017-09-05T23:38:36.180Z,21.40
2017-09-05T23:41:05.427Z,21.40
2017-09-05T23:43:34.687Z,21.50
2017-09-05T23:46:03.926Z,21.50
2017-09-05T23:48:33.172Z,21.50
2017-09-05T23:51:02.436Z,21.40
2017-09-05T23:53:31.688Z,21.40
2017-09-05T23:56:00.947Z,21.40
2017-09-05T23:58:30.365Z,21.40
